Time;durP1;ratioP1;P1;durP2;ratioP2;P2;SDS_P1;SDS_P2;PMS_P1;PMS_P2;Temp;Humidity;BMP_temperature;BMP_pressure;BME280_temperature;BME280_humidity;BME280_pressure;Samples;Min_cycle;Max_cycle;Signal;HPM_P1;HPM_P2
2023/02/27 00:02:25;;;;;;;3.53;0.67;;;1.90;72.80;;;;;;5057078;28;20040;-86
2023/02/27 00:04:50;;;;;;;6.90;0.93;;;1.90;73.00;;;;;;5073549;28;20025;-85
2023/02/27 00:07:16;;;;;;;4.47;0.90;;;1.80;73.00;;;;;;5057043;28;20033;-84
2023/02/27 00:09:42;;;;;;;2.03;0.70;;;1.80;72.90;;;;;;5073991;28;20389;-83
2023/02/27 00:12:08;;;;;;;3.13;0.70;;;1.90;73.10;;;;;;5073132;28;20032;-84
2023/02/27 00:14:34;;;;;;;3.57;0.70;;;1.80;73.30;;;;;;5074366;28;20496;-83
2023/02/27 00:17:00;;;;;;;4.17;0.73;;;1.80;73.40;;;;;;5072796;28;20029;-83
2023/02/27 00:19:26;;;;;;;3.20;1.00;;;1.70;73.40;;;;;;5072902;28;20086;-84
2023/02/27 00:21:51;;;;;;;9.50;1.10;;;1.70;73.40;;;;;;5056170;28;20031;-83
2023/02/27 00:24:17;;;;;;;2.57;0.80;;;1.70;73.60;;;;;;5073156;28;20033;-84
2023/02/27 00:26:43;;;;;;;1.93;0.57;;;1.70;73.40;;;;;;5072850;28;20082;-84
2023/02/27 00:29:08;;;;;;;4.00;1.07;;;1.60;73.60;;;;;;5056086;28;20024;-84
2023/02/27 00:31:34;;;;;;;6.53;1.13;;;1.50;73.60;;;;;;5056097;28;20025;-84
2023/02/27 00:34:00;;;;;;;5.13;0.80;;;1.60;73.70;;;;;;5056311;28;20033;-84
2023/02/27 00:36:25;;;;;;;3.67;0.90;;;1.60;73.60;;;;;;5073061;28;20446;-84
2023/02/27 00:38:51;;;;;;;3.37;0.70;;;1.50;73.80;;;;;;5056455;28;20040;-84
2023/02/27 00:41:17;;;;;;;2.97;1.07;;;1.50;73.80;;;;;;5056156;28;20071;-84
2023/02/27 00:43:42;;;;;;;2.90;0.83;;;1.50;74.10;;;;;;5039397;28;20052;-84
2023/02/27 00:46:09;;;;;;;2.17;0.70;;;1.50;74.00;;;;;;5074046;28;20027;-84
2023/02/27 00:48:34;;;;;;;5.57;0.93;;;1.50;74.00;;;;;;5058358;28;20078;-84
2023/02/27 00:51:00;;;;;;;5.40;0.80;;;1.50;74.00;;;;;;5077162;28;20113;-83
2023/02/27 00:53:26;;;;;;;2.70;0.73;;;1.50;74.00;;;;;;5076721;28;20045;-85
2023/02/27 00:55:51;;;;;;;3.60;0.80;;;1.50;73.80;;;;;;5073300;28;20025;-84
2023/02/27 00:58:17;;;;;;;4.83;0.90;;;1.40;74.20;;;;;;5055863;28;20404;-83
2023/02/27 01:00:43;;;;;;;3.80;0.70;;;1.50;74.00;;;;;;5072398;28;20016;-84
2023/02/27 01:03:08;;;;;;;7.47;0.73;;;1.50;73.80;;;;;;5072613;28;20397;-82
2023/02/27 01:05:34;;;;;;;1.97;0.70;;;1.40;73.80;;;;;;5055722;28;20028;-83
2023/02/27 01:08:00;;;;;;;4.23;0.70;;;1.40;73.70;;;;;;5073892;28;20165;-84
2023/02/27 01:10:25;;;;;;;4.13;0.70;;;1.40;73.70;;;;;;5071928;28;20028;-84
2023/02/27 01:12:51;;;;;;;3.10;0.70;;;1.30;73.80;;;;;;5055459;28;20074;-84
2023/02/27 01:15:17;;;;;;;4.60;0.80;;;1.30;73.80;;;;;;5071982;28;20028;-84
2023/02/27 01:17:43;;;;;;;2.07;0.70;;;1.30;73.80;;;;;;5072895;28;20016;-84
2023/02/27 01:20:11;;;;;;;2.50;0.60;;;1.30;73.90;;;;;;5055784;28;20578;-85
2023/02/27 01:22:37;;;;;;;2.27;0.57;;;1.20;73.80;;;;;;5073080;28;20074;-84
2023/02/27 01:25:03;;;;;;;2.50;0.80;;;1.20;73.90;;;;;;5056386;28;20107;-82
2023/02/27 01:27:29;;;;;;;1.90;0.67;;;1.20;74.00;;;;;;5071734;28;20025;-83
2023/02/27 01:29:54;;;;;;;4.87;0.60;;;1.20;74.00;;;;;;5055654;28;20419;-83
2023/02/27 01:32:20;;;;;;;3.33;0.70;;;1.10;74.00;;;;;;5071980;28;20044;-84
2023/02/27 01:34:46;;;;;;;4.67;0.80;;;1.10;74.10;;;;;;5072292;28;20423;-83
2023/02/27 01:37:11;;;;;;;4.13;0.70;;;1.00;74.10;;;;;;5072298;28;20016;-84
2023/02/27 01:39:37;;;;;;;10.67;0.87;;;1.10;74.30;;;;;;5055633;28;20075;-83
2023/02/27 01:42:03;;;;;;;2.80;0.60;;;1.10;74.40;;;;;;5072165;28;20028;-83
2023/02/27 01:44:30;;;;;;;4.43;0.70;;;1.00;74.40;;;;;;5072179;28;20034;-83
2023/02/27 01:46:56;;;;;;;4.60;0.80;;;1.00;74.40;;;;;;5054912;28;20029;-84
2023/02/27 01:49:28;;;;;;;1.17;0.50;;;1.00;74.50;;;;;;5071053;28;20094;-84
2023/02/27 01:52:00;;;;;;;2.90;0.80;;;1.00;74.50;;;;;;5088491;28;20536;-84
2023/02/27 01:54:34;;;;;;;3.77;0.80;;;0.90;74.50;;;;;;5071542;28;20151;-83
2023/02/27 01:57:02;;;;;;;5.28;0.98;;;0.90;74.60;;;;;;5072024;28;20410;-83
2023/02/27 01:59:28;;;;;;;3.73;0.80;;;0.90;74.70;;;;;;5072235;28;20036;-84
2023/02/27 02:01:56;;;;;;;2.77;0.73;;;0.90;74.80;;;;;;5075514;28;20036;-84
2023/02/27 02:04:29;;;;;;;2.87;0.70;;;0.90;75.00;;;;;;5075413;28;20476;-84
2023/02/27 02:07:11;;;;;;;2.70;0.70;;;0.90;75.00;;;;;;5075371;28;20027;-83
2023/02/27 02:09:58;;;;;;;3.47;0.80;;;0.90;75.00;;;;;;5075381;28;20098;-83
2023/02/27 02:12:34;;;;;;;3.83;0.70;;;0.80;75.00;;;;;;5075189;28;20033;-84
2023/02/27 02:14:59;;;;;;;3.27;0.90;;;0.80;75.00;;;;;;5074887;28;20021;-85
2023/02/27 02:18:01;;;;;;;5.07;0.67;;;0.80;75.00;;;;;;5075155;28;20514;-85
2023/02/27 02:20:44;;;;;;;3.33;1.00;;;0.80;75.10;;;;;;5075095;28;20107;-85
2023/02/27 02:23:25;;;;;;;3.27;0.80;;;0.80;75.10;;;;;;5075611;28;20024;-85
2023/02/27 02:26:17;;;;;;;6.67;0.90;;;0.80;75.10;;;;;;5074904;28;20025;-84
2023/02/27 02:28:48;;;;;;;3.37;0.80;;;0.70;75.20;;;;;;5075279;28;20461;-84
2023/02/27 02:31:42;;;;;;;4.97;1.00;;;0.70;75.30;;;;;;5075158;28;20135;-84
2023/02/27 02:34:14;;;;;;;2.45;0.55;;;0.70;75.50;;;;;;5074836;28;20032;-84
2023/02/27 02:36:58;;;;;;;2.43;0.70;;;0.70;75.90;;;;;;5074826;28;20036;-84
2023/02/27 02:39:39;;;;;;;3.97;0.90;;;0.70;76.00;;;;;;5076203;28;20103;-83
2023/02/27 02:42:48;;;;;;;5.53;0.90;;;0.70;76.30;;;;;;5074915;28;20447;-83
2023/02/27 02:45:30;;;;;;;4.40;1.40;;;0.70;76.70;;;;;;4975300;28;20030;-83
2023/02/27 02:48:08;;;;;;;3.30;1.13;;;0.70;76.80;;;;;;5064229;28;20048;-83
2023/02/27 02:50:50;;;;;;;3.13;0.97;;;0.80;76.60;;;;;;5074248;28;20055;-83
2023/02/27 02:53:52;;;;;;;2.57;1.00;;;0.60;76.50;;;;;;5074709;28;20063;-84
2023/02/27 02:56:58;;;;;;;4.70;1.23;;;0.60;76.50;;;;;;5075677;28;20124;-83
2023/02/27 03:00:08;;;;;;;3.53;1.00;;;0.50;76.70;;;;;;5074891;28;20036;-83
2023/02/27 03:02:42;;;;;;;4.73;1.17;;;0.50;77.20;;;;;;4958539;28;20122;-84
2023/02/27 03:05:16;;;;;;;4.60;1.15;;;0.50;77.50;;;;;;5066236;28;20044;-84
2023/02/27 03:07:51;;;;;;;4.47;1.08;;;0.50;77.50;;;;;;5074503;28;20481;-82
2023/02/27 03:10:24;;;;;;;5.63;0.97;;;0.40;77.20;;;;;;5074975;28;20039;-84
2023/02/27 03:12:58;;;;;;;3.53;0.90;;;0.50;77.50;;;;;;5073831;28;20036;-84
2023/02/27 03:15:39;;;;;;;5.25;1.00;;;0.40;77.40;;;;;;5074892;28;20052;-84
2023/02/27 03:18:17;;;;;;;5.20;1.10;;;0.40;77.10;;;;;;5076102;28;20028;-84
2023/02/27 03:20:50;;;;;;;3.80;1.10;;;0.40;77.00;;;;;;5075493;28;20021;-85
2023/02/27 03:23:39;;;;;;;3.47;0.97;;;0.30;77.20;;;;;;5075979;28;20028;-85
2023/02/27 03:26:06;;;;;;;10.53;1.20;;;0.30;77.30;;;;;;5074282;28;20032;-84
2023/02/27 03:28:36;;;;;;;5.07;1.00;;;0.30;77.50;;;;;;5058156;28;20469;-84
2023/02/27 03:31:09;;;;;;;4.27;0.80;;;0.30;77.80;;;;;;5073754;28;20461;-83
2023/02/27 03:33:41;;;;;;;7.30;1.20;;;0.20;78.20;;;;;;5074103;28;20029;-84
2023/02/27 03:36:27;;;;;;;4.97;1.23;;;0.30;78.00;;;;;;5074046;28;20028;-84
2023/02/27 03:39:05;;;;;;;3.93;1.30;;;0.20;78.10;;;;;;5023782;28;20055;-84
2023/02/27 03:41:44;;;;;;;7.27;1.57;;;0.20;78.20;;;;;;5075095;28;20028;-85
2023/02/27 03:44:28;;;;;;;5.07;0.90;;;0.20;78.10;;;;;;5075123;28;20472;-85
2023/02/27 03:46:54;;;;;;;2.28;0.90;;;0.20;78.60;;;;;;5075329;28;20032;-83
2023/02/27 03:49:19;;;;;;;6.70;1.13;;;0.20;79.10;;;;;;5056692;28;20147;-84
2023/02/27 03:51:45;;;;;;;8.20;1.13;;;0.10;79.00;;;;;;5057255;28;20028;-85
2023/02/27 03:54:26;;;;;;;3.40;1.00;;;0.10;79.10;;;;;;5074962;28;20089;-84
2023/02/27 03:57:03;;;;;;;4.70;0.83;;;0.10;78.90;;;;;;5073705;28;20147;-85
2023/02/27 03:59:30;;;;;;;5.83;1.20;;;0.00;78.70;;;;;;5075121;28;20032;-86
2023/02/27 04:01:57;;;;;;;2.70;0.80;;;-0.10;78.70;;;;;;5057299;28;20055;-85
2023/02/27 04:04:27;;;;;;;3.13;1.00;;;-0.10;78.90;;;;;;5073744;28;20372;-85
2023/02/27 04:07:23;;;;;;;4.23;1.00;;;0.00;79.10;;;;;;5074347;28;20031;-85
2023/02/27 04:09:54;;;;;;;4.47;1.10;;;-0.10;79.10;;;;;;5073906;28;20031;-84
2023/02/27 04:12:51;;;;;;;5.03;1.17;;;-0.10;79.60;;;;;;5075110;28;20314;-85
2023/02/27 04:15:42;;;;;;;5.33;0.73;;;-0.20;79.50;;;;;;5073576;28;20032;-86
2023/02/27 04:18:16;;;;;;;5.70;1.10;;;-0.20;80.00;;;;;;5073753;28;20024;-84
2023/02/27 04:20:48;;;;;;;3.03;1.00;;;-0.20;80.60;;;;;;5074589;28;20024;-85
2023/02/27 04:23:38;;;;;;;3.77;1.00;;;-0.20;81.40;;;;;;5073560;28;20048;-85
2023/02/27 04:26:15;;;;;;;7.27;1.57;;;-0.20;81.00;;;;;;5073088;28;20446;-83
2023/02/27 04:29:01;;;;;;;6.40;1.10;;;-0.20;81.50;;;;;;5072567;28;20024;-84
2023/02/27 04:31:32;;;;;;;6.63;1.17;;;-0.20;81.50;;;;;;5073273;28;20067;-83
2023/02/27 04:34:18;;;;;;;4.13;1.10;;;-0.20;81.60;;;;;;5074576;28;20038;-84
2023/02/27 04:36:49;;;;;;;3.63;1.00;;;-0.20;81.10;;;;;;5073313;28;20290;-83
2023/02/27 04:39:20;;;;;;;2.43;0.97;;;-0.20;81.10;;;;;;5073005;28;20347;-84
2023/02/27 04:41:56;;;;;;;3.70;1.30;;;-0.20;81.10;;;;;;5072852;28;20036;-84
2023/02/27 04:44:24;;;;;;;4.07;0.93;;;-0.30;80.80;;;;;;5073086;28;20483;-85
2023/02/27 04:46:51;;;;;;;4.43;1.00;;;-0.30;80.70;;;;;;5074152;28;20320;-84
2023/02/27 04:49:28;;;;;;;2.83;1.03;;;-0.30;80.70;;;;;;5073367;28;20297;-84
2023/02/27 04:52:05;;;;;;;5.23;0.73;;;-0.30;80.70;;;;;;5072709;28;20282;-85
2023/02/27 04:54:33;;;;;;;4.53;1.00;;;-0.40;80.80;;;;;;5072890;28;20385;-85
2023/02/27 04:57:06;;;;;;;4.63;0.90;;;-0.40;80.90;;;;;;5072877;28;20294;-84
2023/02/27 04:59:44;;;;;;;4.63;1.00;;;-0.40;80.90;;;;;;5072422;28;20078;-83
2023/02/27 05:02:25;;;;;;;6.30;1.23;;;-0.40;81.00;;;;;;5072197;28;20062;-83
2023/02/27 05:04:57;;;;;;;4.13;1.07;;;-0.40;81.10;;;;;;5072792;28;20285;-83
2023/02/27 05:07:29;;;;;;;3.93;0.90;;;-0.40;81.10;;;;;;5072125;28;20329;-83
2023/02/27 05:10:04;;;;;;;4.73;0.80;;;-0.50;81.30;;;;;;5072698;28;20282;-83
2023/02/27 05:12:46;;;;;;;3.73;0.80;;;-0.50;81.20;;;;;;5071807;28;20029;-84
2023/02/27 05:15:23;;;;;;;4.63;0.90;;;-0.50;81.30;;;;;;5073357;28;20074;-82
2023/02/27 05:18:04;;;;;;;5.97;1.00;;;-0.50;81.40;;;;;;5072215;28;20282;-84
2023/02/27 05:20:56;;;;;;;2.90;0.80;;;-0.60;81.40;;;;;;5071582;28;20278;-83
2023/02/27 05:23:40;;;;;;;3.77;0.80;;;-0.60;81.60;;;;;;5019861;28;20275;-83
2023/02/27 05:26:16;;;;;;;2.28;0.82;;;-0.60;81.60;;;;;;5074404;28;20279;-84
2023/02/27 05:28:53;;;;;;;4.17;0.93;;;-0.60;81.80;;;;;;5074470;28;20070;-84
2023/02/27 05:31:28;;;;;;;3.17;0.93;;;-0.60;82.10;;;;;;5075832;28;20035;-84
2023/02/27 05:34:17;;;;;;;4.23;0.90;;;-0.60;82.10;;;;;;5075047;28;20313;-84
2023/02/27 05:36:49;;;;;;;6.27;1.17;;;-0.60;82.00;;;;;;5074761;28;20830;-85
2023/02/27 05:39:17;;;;;;;3.57;1.00;;;-0.60;82.20;;;;;;5076046;28;20334;-85
2023/02/27 05:41:49;;;;;;;6.37;1.20;;;-0.60;82.20;;;;;;5074030;28;20275;-84
2023/02/27 05:44:22;;;;;;;6.07;1.40;;;-0.60;82.40;;;;;;5075397;28;20277;-86
2023/02/27 05:46:58;;;;;;;5.20;1.50;;;-0.60;82.60;;;;;;5075354;28;20051;-84
2023/02/27 05:49:31;;;;;;;4.40;1.13;;;-0.60;82.90;;;;;;5074904;28;20333;-85
2023/02/27 05:52:01;;;;;;;4.47;1.20;;;-0.60;82.80;;;;;;5074851;28;20290;-85
2023/02/27 05:54:35;;;;;;;5.27;1.20;;;-0.60;82.70;;;;;;5073943;28;20834;-86
2023/02/27 05:57:03;;;;;;;3.67;1.35;;;-0.60;82.70;;;;;;5073330;28;20332;-84
2023/02/27 05:59:47;;;;;;;4.73;1.03;;;-0.60;82.70;;;;;;5072518;28;20055;-84
2023/02/27 06:02:13;;;;;;;2.75;1.15;;;-0.60;82.70;;;;;;5071035;28;20287;-83
2023/02/27 06:04:40;;;;;;;4.30;1.40;;;-0.60;82.80;;;;;;5071526;28;20029;-84
2023/02/27 06:07:06;;;;;;;4.73;1.10;;;-0.60;82.80;;;;;;5069570;28;20043;-81
2023/02/27 06:09:32;;;;;;;3.20;1.00;;;-0.60;82.80;;;;;;5038537;28;20278;-84
2023/02/27 06:12:00;;;;;;;4.37;1.20;;;-0.60;83.00;;;;;;5070305;28;20021;-84
2023/02/27 06:14:26;;;;;;;3.63;1.37;;;-0.70;83.00;;;;;;5067261;28;20314;-84
2023/02/27 06:16:51;;;;;;;6.60;1.50;;;-0.60;83.10;;;;;;5070375;28;20353;-85
2023/02/27 06:19:17;;;;;;;4.90;1.10;;;-0.70;83.20;;;;;;5052392;28;20707;-86
2023/02/27 06:21:43;;;;;;;4.13;1.10;;;-0.70;83.40;;;;;;5070572;28;20025;-85
2023/02/27 06:24:08;;;;;;;3.23;1.00;;;-0.70;83.50;;;;;;5053702;28;20031;-85
2023/02/27 06:26:34;;;;;;;6.37;1.87;;;-0.70;83.70;;;;;;5070897;28;20086;-84
2023/02/27 06:29:01;;;;;;;2.83;0.90;;;-0.70;84.20;;;;;;5069714;28;20024;-83
2023/02/27 06:31:27;;;;;;;4.30;1.23;;;-0.60;85.10;;;;;;5053110;28;20048;-83
2023/02/27 06:33:54;;;;;;;12.50;1.83;;;-0.60;85.80;;;;;;5071300;28;20303;-82
2023/02/27 06:36:21;;;;;;;6.57;1.60;;;-0.50;85.70;;;;;;5054913;28;20078;-85
2023/02/27 06:38:47;;;;;;;7.33;1.30;;;-0.50;85.80;;;;;;5070492;28;20047;-85
2023/02/27 06:41:13;;;;;;;4.73;1.37;;;-0.40;86.70;;;;;;5071307;28;20627;-85
2023/02/27 06:43:39;;;;;;;9.90;1.63;;;-0.40;87.10;;;;;;5054671;28;20025;-84
2023/02/27 06:46:05;;;;;;;9.70;1.47;;;-0.40;87.20;;;;;;5073627;28;20336;-84
2023/02/27 06:48:31;;;;;;;5.87;1.30;;;-0.30;87.60;;;;;;5074565;28;20051;-84
2023/02/27 06:50:56;;;;;;;5.97;1.33;;;-0.40;87.40;;;;;;5073560;28;20541;-85
2023/02/27 06:53:23;;;;;;;11.53;2.07;;;-0.30;87.70;;;;;;5065924;28;20033;-85
2023/02/27 06:55:49;;;;;;;8.83;1.80;;;-0.30;87.80;;;;;;5083351;28;20039;-84
2023/02/27 06:58:15;;;;;;;4.43;1.20;;;-0.30;87.70;;;;;;5068919;28;20024;-85
2023/02/27 07:00:42;;;;;;;4.53;1.50;;;-0.20;87.60;;;;;;5065936;28;20063;-85
2023/02/27 07:03:07;;;;;;;5.43;2.03;;;-0.20;87.70;;;;;;5066883;28;20118;-84
2023/02/27 07:05:33;;;;;;;5.10;1.90;;;-0.20;87.60;;;;;;5068789;28;20309;-84
2023/02/27 07:07:59;;;;;;;6.97;1.63;;;-0.10;87.40;;;;;;5084199;28;20495;-84
2023/02/27 07:10:24;;;;;;;5.07;1.40;;;-0.10;87.60;;;;;;5083811;28;20503;-85
2023/02/27 07:12:50;;;;;;;6.60;1.80;;;0.00;87.90;;;;;;5085425;28;20414;-85
2023/02/27 07:15:16;;;;;;;6.00;1.67;;;0.00;88.10;;;;;;5083045;28;20028;-84
2023/02/27 07:17:42;;;;;;;9.47;1.93;;;0.00;87.80;;;;;;5074409;28;20025;-86
2023/02/27 07:20:09;;;;;;;5.43;1.60;;;0.10;87.70;;;;;;5057649;28;20072;-85
2023/02/27 07:22:36;;;;;;;5.60;1.60;;;0.10;87.80;;;;;;5057558;28;20029;-85
2023/02/27 07:25:03;;;;;;;9.13;1.53;;;0.20;87.90;;;;;;5075733;28;20111;-87
2023/02/27 07:27:29;;;;;;;11.33;1.90;;;0.20;88.10;;;;;;5058102;28;20033;-86
2023/02/27 07:29:54;;;;;;;5.70;1.93;;;0.30;88.20;;;;;;5086035;28;20032;-85
2023/02/27 07:32:20;;;;;;;6.37;1.67;;;0.30;88.30;;;;;;5084501;28;20036;-86
2023/02/27 07:34:46;;;;;;;6.03;1.93;;;0.50;88.40;;;;;;5084863;28;20525;-87
2023/02/27 07:37:11;;;;;;;5.70;1.70;;;0.50;88.30;;;;;;5057386;28;20771;-86
2023/02/27 07:39:37;;;;;;;6.70;2.00;;;0.40;88.10;;;;;;5059088;28;20115;-85
2023/02/27 07:42:03;;;;;;;5.60;2.00;;;0.50;88.40;;;;;;5076171;28;20029;-85
2023/02/27 07:44:29;;;;;;;7.50;1.80;;;0.60;88.30;;;;;;5072627;28;20037;-85
2023/02/27 07:46:54;;;;;;;8.67;2.13;;;0.60;88.10;;;;;;5074386;28;20025;-86
2023/02/27 07:49:20;;;;;;;5.40;1.70;;;0.60;88.40;;;;;;5081954;28;20076;-85
2023/02/27 07:51:45;;;;;;;8.73;1.80;;;0.70;88.30;;;;;;5095764;28;20059;-86
2023/02/27 07:54:11;;;;;;;3.53;1.33;;;0.70;88.30;;;;;;5080016;28;20082;-86
2023/02/27 07:56:37;;;;;;;6.57;1.83;;;0.80;88.20;;;;;;5055792;28;20029;-83
2023/02/27 07:59:02;;;;;;;7.07;1.50;;;0.80;88.10;;;;;;5055054;28;20427;-85
2023/02/27 08:01:28;;;;;;;9.17;1.63;;;0.90;87.90;;;;;;5055943;28;20369;-85
2023/02/27 08:03:55;;;;;;;5.27;1.60;;;0.90;87.90;;;;;;5073807;28;20048;-84
2023/02/27 08:06:22;;;;;;;7.77;1.77;;;0.90;88.30;;;;;;5057185;28;20511;-84
2023/02/27 08:08:48;;;;;;;4.50;1.20;;;1.10;88.50;;;;;;5074056;28;20392;-86
2023/02/27 08:11:14;;;;;;;4.47;1.40;;;1.20;88.40;;;;;;5056479;28;20031;-86
2023/02/27 08:13:40;;;;;;;3.63;1.40;;;1.10;88.30;;;;;;5073445;28;20037;-84
2023/02/27 08:16:06;;;;;;;4.67;1.70;;;1.20;88.30;;;;;;5073884;28;20070;-86
2023/02/27 08:18:32;;;;;;;2.90;1.17;;;1.30;88.30;;;;;;5074002;28;20411;-85
2023/02/27 08:20:58;;;;;;;5.80;1.50;;;1.30;88.10;;;;;;5056676;28;20017;-85
2023/02/27 08:23:24;;;;;;;4.20;1.43;;;1.30;88.10;;;;;;5073451;28;20025;-86
2023/02/27 08:25:49;;;;;;;3.97;1.10;;;1.50;88.20;;;;;;5074573;28;20028;-85
2023/02/27 08:28:17;;;;;;;3.67;1.20;;;1.50;88.00;;;;;;5057075;28;20033;-85
2023/02/27 08:30:43;;;;;;;3.80;1.20;;;1.60;87.90;;;;;;5072777;28;20119;-86
2023/02/27 08:33:08;;;;;;;3.73;1.40;;;1.70;87.90;;;;;;5073067;28;20170;-86
2023/02/27 08:35:34;;;;;;;7.00;1.30;;;1.80;87.80;;;;;;5056489;28;20465;-85
2023/02/27 08:37:59;;;;;;;2.70;0.93;;;1.80;87.70;;;;;;5073144;28;20032;-86
2023/02/27 08:40:25;;;;;;;2.73;1.03;;;1.90;87.60;;;;;;5073404;28;20040;-86
2023/02/27 08:42:51;;;;;;;6.40;1.30;;;1.90;87.40;;;;;;5073046;28;20028;-85
2023/02/27 08:45:17;;;;;;;7.73;2.00;;;2.00;87.40;;;;;;5056660;28;20024;-85
2023/02/27 08:47:44;;;;;;;8.50;1.53;;;2.10;87.30;;;;;;5073156;28;20035;-86
2023/02/27 08:50:13;;;;;;;4.47;1.23;;;2.10;87.10;;;;;;5073304;28;20378;-86
2023/02/27 08:52:39;;;;;;;3.60;1.00;;;2.20;87.10;;;;;;5073217;28;20070;-86
2023/02/27 08:55:05;;;;;;;4.53;1.27;;;2.30;87.00;;;;;;5073335;28;20060;-86
2023/02/27 08:57:32;;;;;;;3.87;1.00;;;2.40;87.00;;;;;;5074128;28;20111;-86
2023/02/27 08:59:57;;;;;;;7.33;1.30;;;2.50;86.80;;;;;;5074478;28;20027;-86
2023/02/27 09:02:25;;;;;;;3.23;1.40;;;2.60;86.60;;;;;;5056448;28;20028;-85
2023/02/27 09:04:54;;;;;;;6.27;1.03;;;2.60;86.40;;;;;;5072940;28;20028;-86
2023/02/27 09:07:19;;;;;;;4.83;1.27;;;2.70;86.10;;;;;;5056066;28;20039;-86
2023/02/27 09:09:45;;;;;;;3.87;1.00;;;2.80;85.70;;;;;;5071926;28;20058;-85
2023/02/27 09:12:11;;;;;;;3.60;0.87;;;3.00;85.60;;;;;;5056248;28;20384;-85
2023/02/27 09:14:38;;;;;;;3.80;0.80;;;3.00;85.40;;;;;;5074042;28;20040;-83
2023/02/27 09:17:05;;;;;;;5.30;0.80;;;3.10;85.10;;;;;;5056546;28;20102;-85
2023/02/27 09:19:30;;;;;;;4.17;0.90;;;3.20;84.60;;;;;;5056040;28;20105;-86
2023/02/27 09:21:56;;;;;;;3.53;1.00;;;3.20;84.60;;;;;;5056290;28;20048;-85
2023/02/27 09:24:21;;;;;;;5.97;1.27;;;3.30;84.40;;;;;;5056240;28;20025;-85
2023/02/27 09:26:47;;;;;;;2.33;0.60;;;3.40;84.20;;;;;;5055596;28;20028;-85
2023/02/27 09:29:13;;;;;;;4.90;0.83;;;3.60;84.00;;;;;;5073976;28;20099;-84
2023/02/27 09:31:39;;;;;;;3.03;0.90;;;3.50;82.80;;;;;;5073907;28;20048;-86
2023/02/27 09:34:05;;;;;;;2.93;0.70;;;3.70;83.10;;;;;;5055846;28;20063;-84
2023/02/27 09:36:30;;;;;;;5.07;0.87;;;3.70;82.50;;;;;;5073097;28;20028;-86
2023/02/27 09:38:58;;;;;;;4.77;0.80;;;3.80;81.80;;;;;;5073512;28;20524;-84
2023/02/27 09:41:45;;;;;;;3.13;0.70;;;4.00;82.00;;;;;;5075041;28;20028;-84
2023/02/27 09:44:30;;;;;;;4.10;1.00;;;4.00;81.60;;;;;;5074320;28;20031;-84
2023/02/27 09:46:56;;;;;;;3.60;0.70;;;4.10;80.90;;;;;;5073850;28;20092;-85
2023/02/27 09:49:25;;;;;;;2.33;0.60;;;4.20;80.70;;;;;;5073839;28;20072;-85
2023/02/27 09:51:52;;;;;;;2.83;0.70;;;4.30;80.00;;;;;;5073886;28;20093;-85
2023/02/27 09:54:18;;;;;;;3.43;0.60;;;4.40;80.00;;;;;;5073977;28;20052;-86
2023/02/27 09:56:52;;;;;;;4.00;0.70;;;4.40;80.10;;;;;;5076675;28;20237;-85
2023/02/27 09:59:41;;;;;;;2.53;0.60;;;4.60;80.20;;;;;;5077955;28;20032;-85
2023/02/27 10:02:31;;;;;;;7.53;0.80;;;4.80;79.90;;;;;;5075789;28;20029;-85
2023/02/27 10:05:12;;;;;;;4.33;0.60;;;5.00;78.80;;;;;;5072453;28;20476;-86
2023/02/27 10:07:44;;;;;;;4.57;0.73;;;5.30;77.70;;;;;;5073114;28;20123;-85
2023/02/27 10:10:35;;;;;;;3.77;0.90;;;5.70;77.90;;;;;;5074327;28;20035;-86
2023/02/27 10:13:00;;;;;;;3.23;0.60;;;6.20;78.30;;;;;;5072779;28;20032;-86
2023/02/27 10:15:29;;;;;;;3.53;0.73;;;6.80;79.40;;;;;;5072428;28;20525;-86
2023/02/27 10:18:16;;;;;;;2.07;0.40;;;7.40;80.50;;;;;;5073616;28;20062;-86
2023/02/27 10:21:12;;;;;;;2.83;0.57;;;8.30;81.20;;;;;;5074425;28;20028;-86
2023/02/27 10:23:55;;;;;;;2.45;0.38;;;9.40;80.40;;;;;;5075744;28;20059;-86
2023/02/27 10:26:30;;;;;;;4.80;0.40;;;10.30;79.40;;;;;;5076605;28;20396;-86
2023/02/27 10:29:00;;;;;;;3.15;0.73;;;11.30;78.20;;;;;;5076899;28;20025;-86
2023/02/27 10:31:32;;;;;;;1.55;0.40;;;12.10;76.20;;;;;;5075819;28;20024;-87
2023/02/27 10:33:59;;;;;;;3.00;0.47;;;12.90;75.10;;;;;;5075573;28;20033;-86
2023/02/27 10:36:25;;;;;;;2.67;0.30;;;13.70;73.60;;;;;;5058890;28;20039;-86
2023/02/27 10:38:57;;;;;;;2.70;0.50;;;14.40;69.90;;;;;;5058441;28;20028;-87
2023/02/27 10:41:23;;;;;;;3.10;0.30;;;15.00;67.70;;;;;;5075273;28;20017;-85
2023/02/27 10:43:55;;;;;;;3.53;0.45;;;15.60;63.30;;;;;;5075239;28;20025;-87
2023/02/27 10:46:25;;;;;;;1.15;0.38;;;16.10;57.10;;;;;;5076613;28;20027;-86
2023/02/27 10:48:52;;;;;;;1.73;0.50;;;16.60;57.50;;;;;;5076073;28;20113;-86
2023/02/27 10:51:35;;;;;;;2.38;0.40;;;17.20;55.10;;;;;;5076915;28;20029;-85
2023/02/27 10:54:23;;;;;;;4.97;0.70;;;17.70;51.30;;;;;;5074651;28;20052;-86
2023/02/27 10:56:52;;;;;;;2.42;0.40;;;17.70;47.00;;;;;;5076428;28;20099;-85
2023/02/27 10:59:33;;;;;;;4.43;0.55;;;17.50;47.90;;;;;;5074834;28;20052;-84
2023/02/27 11:02:02;;;;;;;3.67;0.60;;;17.50;44.70;;;;;;5076340;28;20138;-84
2023/02/27 11:04:39;;;;;;;2.35;0.40;;;17.30;42.90;;;;;;5074603;28;20025;-85
2023/02/27 11:07:13;;;;;;;4.80;0.90;;;17.00;42.40;;;;;;5076002;28;20103;-84
2023/02/27 11:09:39;;;;;;;2.42;0.52;;;16.90;42.40;;;;;;5075037;28;20550;-85
2023/02/27 11:12:17;;;;;;;0.82;0.20;;;17.00;43.00;;;;;;5074574;28;20025;-84
2023/02/27 11:14:59;;;;;;;2.88;0.30;;;17.20;41.40;;;;;;5074690;28;20078;-84
2023/02/27 11:17:31;;;;;;;2.45;0.50;;;17.10;40.40;;;;;;5075759;28;20054;-84
2023/02/27 11:19:59;;;;;;;1.88;0.40;;;16.60;40.50;;;;;;5074980;28;20434;-84
2023/02/27 11:22:28;;;;;;;1.40;0.30;;;15.90;40.80;;;;;;5074491;28;20024;-84
2023/02/27 11:25:15;;;;;;;2.45;0.30;;;15.20;41.90;;;;;;5074376;28;20024;-84
2023/02/27 11:27:41;;;;;;;2.03;0.30;;;14.50;41.90;;;;;;5074277;28;20111;-84
2023/02/27 11:30:27;;;;;;;2.17;0.30;;;14.30;43.00;;;;;;5074659;28;20060;-84
2023/02/27 11:32:55;;;;;;;0.85;0.17;;;14.70;43.90;;;;;;5073558;28;20082;-85
2023/02/27 11:35:31;;;;;;;2.08;0.15;;;15.30;44.30;;;;;;5075637;28;20081;-85
2023/02/27 11:38:03;;;;;;;0.90;0.20;;;15.90;44.10;;;;;;5073876;28;20044;-85
2023/02/27 11:40:31;;;;;;;1.67;0.40;;;16.60;43.10;;;;;;5074411;28;20055;-84
2023/02/27 11:43:13;;;;;;;2.25;0.30;;;17.30;43.00;;;;;;5075230;28;20028;-85
2023/02/27 11:45:40;;;;;;;0.70;0.20;;;17.90;42.40;;;;;;5073335;28;20491;-84
2023/02/27 11:48:15;;;;;;;1.23;0.20;;;18.40;41.10;;;;;;5075385;28;20468;-84
2023/02/27 11:51:20;;;;;;;1.38;0.22;;;18.80;41.10;;;;;;5075530;28;20053;-85
2023/02/27 11:54:14;;;;;;;0.80;0.20;;;19.30;40.90;;;;;;5074939;28;20068;-85
2023/02/27 11:57:24;;;;;;;0.90;0.20;;;20.00;40.70;;;;;;5073720;28;20078;-85
2023/02/27 12:00:12;;;;;;;1.73;0.20;;;20.70;39.50;;;;;;5073353;28;20452;-85
2023/02/27 12:02:54;;;;;;;1.65;0.38;;;21.10;39.50;;;;;;5075242;28;20032;-84
2023/02/27 12:05:21;;;;;;;3.63;0.57;;;21.50;38.60;;;;;;5074445;28;20477;-85
2023/02/27 12:08:01;;;;;;;0.73;0.30;;;21.80;38.70;;;;;;5073815;28;20465;-83
2023/02/27 12:10:42;;;;;;;2.00;0.30;;;22.00;38.10;;;;;;5073517;28;20024;-83
2023/02/27 12:13:17;;;;;;;1.92;0.40;;;22.30;36.80;;;;;;5074827;28;20495;-84
2023/02/27 12:15:59;;;;;;;1.58;0.40;;;22.30;35.70;;;;;;5074511;28;20021;-83
2023/02/27 12:18:36;;;;;;;1.58;0.28;;;21.70;36.00;;;;;;5073378;28;20031;-83
2023/02/27 12:21:11;;;;;;;3.17;0.40;;;21.60;36.30;;;;;;5072928;28;20088;-82
2023/02/27 12:23:39;;;;;;;1.70;0.30;;;21.50;36.00;;;;;;5074025;28;20025;-83
2023/02/27 12:26:30;;;;;;;2.08;0.32;;;21.10;35.40;;;;;;5074620;28;20481;-83
2023/02/27 12:29:12;;;;;;;2.20;0.47;;;20.70;34.10;;;;;;5072907;28;20028;-84
2023/02/27 12:31:47;;;;;;;2.45;0.43;;;19.90;33.90;;;;;;5073951;28;20028;-82
2023/02/27 12:34:19;;;;;;;3.20;0.50;;;19.10;34.70;;;;;;5072850;28;20032;-83
2023/02/27 12:36:46;;;;;;;3.05;0.43;;;18.20;35.40;;;;;;5073950;28;20469;-84
2023/02/27 12:39:22;;;;;;;2.72;0.52;;;17.40;36.30;;;;;;5072486;28;20039;-83
2023/02/27 12:42:28;;;;;;;1.65;0.40;;;16.90;36.90;;;;;;5056024;28;20458;-84
2023/02/27 12:45:18;;;;;;;2.72;0.45;;;16.30;37.40;;;;;;5072998;28;20062;-83
2023/02/27 12:47:49;;;;;;;1.30;0.47;;;15.80;38.20;;;;;;5072510;28;20029;-84
2023/02/27 12:50:21;;;;;;;1.15;0.47;;;15.30;38.60;;;;;;5072224;28;20049;-83
2023/02/27 12:52:56;;;;;;;2.90;0.47;;;15.00;39.60;;;;;;5073243;28;20553;-84
2023/02/27 12:55:37;;;;;;;2.60;0.50;;;15.10;40.00;;;;;;5073841;28;20016;-83
2023/02/27 12:58:31;;;;;;;2.72;0.32;;;15.10;40.20;;;;;;5072489;28;20115;-84
2023/02/27 13:01:00;;;;;;;3.80;0.30;;;15.00;40.00;;;;;;5072178;28;20046;-83
2023/02/27 13:03:41;;;;;;;3.47;0.52;;;14.80;40.30;;;;;;5072443;28;20025;-84
2023/02/27 13:06:06;;;;;;;1.80;0.40;;;14.50;40.60;;;;;;5072071;28;20020;-83
2023/02/27 13:09:17;;;;;;;2.05;0.30;;;14.20;40.80;;;;;;5073344;28;20448;-82
2023/02/27 13:12:06;;;;;;;3.58;0.60;;;13.80;41.50;;;;;;5050387;28;20074;-83
2023/02/27 13:14:43;;;;;;;4.75;0.40;;;13.40;42.40;;;;;;5072019;28;20042;-85
2023/02/27 13:17:27;;;;;;;3.05;0.57;;;13.00;43.00;;;;;;5072258;28;20032;-84
2023/02/27 13:20:01;;;;;;;3.90;0.45;;;12.70;43.70;;;;;;5071370;28;20518;-84
2023/02/27 13:22:36;;;;;;;3.53;0.80;;;12.30;44.40;;;;;;5072083;28;20021;-84